»·PEaware :: N42GM KSBA-KSNA

N42GM :: KSBA-KSNA

FLIGHT INFORMATION

Flight Status: Arrived
Operator: Privately registered:
United States
More flights under this callsign
Pilot: Jereme M. (20698)
Aircraft: Unknown
(DA62)
More flights by this aircraft type
Origin: KSBA Santa Barbara Mun
United States
Destination: KSNA John Wayne-Orange Co
United States
More flights between these airports :: More routes between these airports
Route: KWANG CMA VNY V186 BAYJY V363 POXKU V8 SLI
File this flight plan on PilotEdge
Remarks: TEC route SBAP6
Altitude:
(Current/Filed)
5,000ft
Speed:
(Current/Filed)
180kts
Departed: 14-Jan-20 05:09 PM
Arrived: 14-Jan-20 05:59 PM
Distance/Time
Traveled:
108nm/0:50
Distance/Time
To Go:
Arrived

Flight Plot

Page will automatically refresh every two minutes.


Map Options




Map Legend


Flown Route
Filed Route
Departure Airport
Arrival Airport
Navaid (VOR, NDB)
Fix

Horizontal Profiles

Position Reports

Time Latitude Longitude Heading Altitude Ground
Speed
14-Jan-20 16:42 34.432439 -119.835536 70 17ft 0kts
14-Jan-20 16:43 34.432439 -119.835536 70 17ft 0kts
14-Jan-20 16:44 34.432439 -119.835536 70 17ft 0kts
14-Jan-20 16:45 34.432439 -119.835536 70 17ft 0kts
14-Jan-20 16:46 34.432439 -119.835536 70 17ft 0kts
14-Jan-20 16:47 34.432439 -119.835536 70 17ft 0kts
14-Jan-20 16:48 34.432439 -119.835536 70 17ft 0kts
14-Jan-20 16:49 34.432439 -119.835536 70 17ft 0kts
14-Jan-20 16:50 34.432439 -119.835536 70 17ft 0kts
14-Jan-20 16:51 34.432439 -119.835536 70 17ft 0kts
14-Jan-20 16:52 34.432439 -119.835536 70 17ft 0kts
14-Jan-20 16:53 34.432439 -119.835536 70 17ft 0kts
14-Jan-20 16:54 34.432439 -119.835536 70 17ft 0kts
14-Jan-20 16:55 34.432439 -119.835536 70 17ft 0kts
14-Jan-20 16:56 34.432439 -119.835536 70 17ft 0kts
14-Jan-20 16:57 34.432439 -119.835536 70 17ft 0kts
14-Jan-20 16:58 34.432439 -119.835536 70 17ft 0kts
14-Jan-20 16:59 34.432439 -119.835536 70 17ft 0kts
14-Jan-20 17:00 34.431962 -119.835370 181 17ft 10kts
14-Jan-20 17:01 34.428687 -119.834643 184 17ft 0kts
14-Jan-20 17:02 34.428687 -119.834643 184 17ft 0kts
14-Jan-20 17:03 34.428687 -119.834643 184 17ft 0kts
14-Jan-20 17:04 34.428687 -119.834643 184 17ft 0kts
14-Jan-20 17:05 34.428687 -119.834643 184 17ft 0kts
14-Jan-20 17:06 34.428687 -119.834643 184 17ft 0kts
14-Jan-20 17:07 34.428687 -119.834643 184 17ft 0kts
14-Jan-20 17:08 34.427606 -119.846642 264 130ft 93kts
14-Jan-20 17:09 34.425598 -119.880297 262 1358ft 100kts
14-Jan-20 17:10 34.422753 -119.916007 263 2572ft 112kts
14-Jan-20 17:11 34.401203 -119.928105 121 3976ft 117kts
14-Jan-20 17:12 34.391034 -119.891030 96 5008ft 137kts
14-Jan-20 17:13 34.379505 -119.836810 98 5001ft 178kts
14-Jan-20 17:14 34.366692 -119.777802 98 5000ft 183kts
14-Jan-20 17:15 34.353750 -119.717925 98 4998ft 183kts
14-Jan-20 17:16 34.340802 -119.658122 99 4999ft 183kts
14-Jan-20 17:17 34.327582 -119.598282 100 5000ft 183kts
14-Jan-20 17:18 34.314492 -119.538653 100 5002ft 183kts
14-Jan-20 17:19 34.301116 -119.479059 101 5002ft 183kts
14-Jan-20 17:20 34.287529 -119.419600 101 5001ft 183kts
14-Jan-20 17:21 34.273897 -119.360153 101 5003ft 182kts
14-Jan-20 17:22 34.261278 -119.305326 102 4993ft 182kts
14-Jan-20 17:23 34.247707 -119.246327 102 4991ft 181kts
14-Jan-20 17:24 34.234079 -119.187386 102 4991ft 181kts
14-Jan-20 17:25 34.220421 -119.128381 103 4993ft 181kts
14-Jan-20 17:26 34.213360 -119.068866 86 4994ft 177kts
14-Jan-20 17:27 34.214304 -119.009017 85 4997ft 177kts
14-Jan-20 17:28 34.215449 -118.949411 86 5003ft 176kts
14-Jan-20 17:29 34.216590 -118.890053 86 5007ft 176kts
14-Jan-20 17:30 34.217691 -118.830562 86 5014ft 176kts
14-Jan-20 17:31 34.218777 -118.771255 86 5017ft 176kts
14-Jan-20 17:32 34.219819 -118.712182 87 5022ft 175kts
14-Jan-20 17:33 34.220837 -118.652939 86 5027ft 176kts
14-Jan-20 17:34 34.221837 -118.593752 87 5027ft 175kts
14-Jan-20 17:35 34.222802 -118.534387 87 5027ft 175kts
14-Jan-20 17:36 34.218124 -118.475927 107 5027ft 176kts
14-Jan-20 17:37 34.201506 -118.419291 109 5026ft 177kts
14-Jan-20 17:38 34.184359 -118.362829 108 5015ft 179kts
14-Jan-20 17:39 34.167432 -118.306926 110 5029ft 179kts
14-Jan-20 17:40 34.150066 -118.249942 110 5024ft 179kts
14-Jan-20 17:41 34.132774 -118.193025 110 5033ft 179kts
14-Jan-20 17:42 34.115411 -118.136497 110 5012ft 180kts
14-Jan-20 17:43 34.098051 -118.079729 110 5012ft 180kts
14-Jan-20 17:44 34.080677 -118.023057 109 5002ft 179kts
14-Jan-20 17:45 34.063274 -117.966595 110 4995ft 178kts
14-Jan-20 17:46 34.045965 -117.910412 110 4994ft 177kts
14-Jan-20 17:47 34.028699 -117.854468 110 4991ft 177kts
14-Jan-20 17:48 34.011246 -117.798509 115 4986ft 178kts
14-Jan-20 17:49 33.965414 -117.781485 162 4037ft 180kts
14-Jan-20 17:50 33.920553 -117.762263 161 3040ft 163kts
14-Jan-20 17:51 33.877245 -117.752244 181 2993ft 162kts
14-Jan-20 17:52 33.835164 -117.766985 210 2992ft 161kts
14-Jan-20 17:53 33.795822 -117.792593 208 2580ft 157kts
14-Jan-20 17:54 33.758997 -117.815847 207 1794ft 143kts
14-Jan-20 17:55 33.729204 -117.834812 207 1155ft 101kts
14-Jan-20 17:56 33.704971 -117.850178 208 651ft 90kts
14-Jan-20 17:57 33.683511 -117.863840 207 158ft 84kts
14-Jan-20 17:58 33.675845 -117.869601 296 60ft 0kts
14-Jan-20 18:00 33.676468 -117.871033 110 60ft 0kts
14-Jan-20 18:01 33.676468 -117.871033 110 60ft 0kts
14-Jan-20 18:02 33.676468 -117.871033 109 60ft 0kts
14-Jan-20 18:03 33.676468 -117.871033 109 60ft 0kts
14-Jan-20 18:04 33.676468 -117.871033 109 60ft 0kts
14-Jan-20 18:05 33.676468 -117.871033 109 60ft 0kts
14-Jan-20 18:06 33.676468 -117.871033 109 60ft 0kts
14-Jan-20 18:07 33.676468 -117.871033 109 60ft 0kts
14-Jan-20 18:08 33.676468 -117.871033 109 60ft 0kts
14-Jan-20 18:09 33.676468 -117.871033 109 60ft 0kts
14-Jan-20 18:10 33.676468 -117.871033 109 60ft 0kts
14-Jan-20 18:11 33.676468 -117.871033 109 60ft 0kts

Navigation Log

Ident Type
Flight plan parsing failed, navigation log unavailable